createdAt,value
2022-11-29T00:01:30.312Z,4.00
2022-11-29T00:03:57.790Z,4.00
2022-11-29T00:06:30.316Z,4.00
2022-11-29T00:08:59.435Z,4.00
2022-11-29T00:11:28.980Z,4.00
2022-11-29T00:13:55.732Z,4.10
2022-11-29T00:16:22.588Z,4.00
2022-11-29T00:18:49.450Z,4.10
2022-11-29T00:21:16.264Z,4.00
2022-11-29T00:23:42.985Z,4.00
2022-11-29T00:26:09.791Z,4.00
2022-11-29T00:28:37.029Z,4.00
2022-11-29T00:31:25.517Z,4.00
2022-11-29T00:33:52.995Z,4.00
2022-11-29T00:36:20.600Z,4.00
2022-11-29T00:38:47.358Z,3.90
2022-11-29T00:41:14.198Z,3.90
2022-11-29T00:43:41.441Z,3.90
2022-11-29T00:46:09.171Z,3.90
2022-11-29T00:48:36.729Z,3.90
2022-11-29T00:51:05.274Z,3.90
2022-11-29T00:53:33.400Z,3.90
2022-11-29T00:56:00.214Z,3.90
2022-11-29T00:58:26.922Z,4.00
2022-11-29T01:00:54.289Z,3.90
2022-11-29T01:03:21.373Z,3.90
2022-11-29T01:05:49.114Z,3.90
2022-11-29T01:08:16.475Z,3.90
2022-11-29T01:10:43.408Z,3.90
2022-11-29T01:13:10.977Z,3.90
2022-11-29T01:15:37.824Z,3.90
2022-11-29T01:18:05.167Z,3.90
2022-11-29T01:20:31.991Z,4.00
2022-11-29T01:22:58.849Z,4.00
2022-11-29T01:25:25.606Z,4.00
2022-11-29T01:27:52.402Z,4.00
2022-11-29T01:30:19.319Z,4.00
2022-11-29T01:32:46.015Z,4.00
2022-11-29T01:35:12.796Z,4.00
2022-11-29T01:37:39.660Z,4.00
2022-11-29T01:40:07.059Z,4.00
2022-11-29T01:42:33.778Z,4.00
2022-11-29T01:45:12.687Z,4.00
2022-11-29T01:47:45.063Z,4.00
2022-11-29T01:50:11.987Z,4.00
2022-11-29T01:52:39.238Z,4.00
2022-11-29T01:55:08.925Z,4.00
2022-11-29T01:57:38.711Z,4.00
2022-11-29T02:00:13.726Z,4.00
2022-11-29T02:02:48.752Z,4.00
2022-11-29T02:05:18.244Z,4.00
2022-11-29T02:07:48.679Z,4.00
2022-11-29T02:10:16.502Z,4.00
2022-11-29T02:12:51.083Z,4.00
2022-11-29T02:15:33.242Z,4.00
2022-11-29T02:18:25.955Z,4.10
2022-11-29T02:21:13.585Z,4.10
2022-11-29T02:23:59.020Z,4.10
2022-11-29T02:26:28.828Z,4.10
2022-11-29T02:29:07.835Z,4.10
2022-11-29T02:31:37.315Z,4.10
2022-11-29T02:34:06.983Z,4.10
2022-11-29T02:36:44.395Z,4.10
2022-11-29T02:39:34.558Z,4.10
2022-11-29T02:42:19.996Z,4.10
2022-11-29T02:45:14.458Z,4.10
2022-11-29T02:48:08.004Z,4.10
2022-11-29T02:51:04.083Z,4.10
2022-11-29T02:54:00.281Z,4.10
2022-11-29T02:56:46.521Z,4.10
2022-11-29T02:59:23.350Z,4.10
2022-11-29T03:01:52.933Z,4.00
2022-11-29T03:04:32.213Z,4.00
2022-11-29T03:07:17.614Z,4.00
2022-11-29T03:09:55.403Z,4.00
2022-11-29T03:12:41.502Z,4.10
2022-11-29T03:15:26.714Z,4.10
2022-11-29T03:18:22.523Z,4.10
2022-11-29T03:21:06.719Z,4.10
2022-11-29T03:23:56.216Z,4.10
2022-11-29T03:26:43.528Z,4.10
2022-11-29T03:29:14.988Z,4.10
2022-11-29T03:31:56.630Z,4.10
2022-11-29T03:34:26.388Z,4.10
2022-11-29T03:36:58.901Z,4.10
2022-11-29T03:39:34.174Z,4.10
2022-11-29T03:42:07.905Z,4.10
2022-11-29T03:44:42.037Z,4.20
2022-11-29T03:47:14.521Z,4.10
2022-11-29T03:49:48.250Z,4.10
2022-11-29T03:52:42.234Z,4.10
2022-11-29T03:55:08.888Z,4.10
2022-11-29T03:57:38.289Z,4.10
2022-11-29T04:00:08.609Z,4.10
2022-11-29T04:02:44.440Z,4.10
2022-11-29T04:05:21.261Z,4.10
2022-11-29T04:07:50.976Z,4.10
2022-11-29T04:10:42.565Z,4.10
2022-11-29T04:13:46.636Z,4.10
2022-11-29T04:16:34.309Z,4.10
2022-11-29T04:19:31.931Z,4.00
2022-11-29T04:22:29.000Z,4.10
2022-11-29T04:25:22.285Z,4.10
2022-11-29T04:27:58.023Z,4.10
2022-11-29T04:30:25.451Z,4.10
2022-11-29T04:33:01.472Z,4.10
2022-11-29T04:35:41.650Z,4.10
2022-11-29T04:38:08.266Z,4.10
2022-11-29T04:41:12.695Z,4.10
2022-11-29T04:44:17.988Z,4.10
2022-11-29T04:47:27.873Z,4.10
2022-11-29T04:50:22.919Z,4.10
2022-11-29T04:52:52.521Z,4.10
2022-11-29T04:56:00.851Z,4.10
2022-11-29T04:58:40.211Z,4.10
2022-11-29T05:01:41.153Z,4.10
2022-11-29T05:04:20.342Z,4.10
2022-11-29T05:06:50.041Z,4.10
2022-11-29T05:09:38.548Z,4.00
2022-11-29T05:12:19.375Z,4.10
2022-11-29T05:15:09.607Z,4.00
2022-11-29T05:17:50.462Z,4.00
2022-11-29T05:20:42.074Z,4.00
2022-11-29T05:23:26.854Z,4.00
2022-11-29T05:26:19.542Z,4.00
2022-11-29T05:29:01.312Z,4.00
2022-11-29T05:31:46.046Z,4.10
2022-11-29T05:34:12.672Z,4.10
2022-11-29T05:36:51.392Z,4.10
2022-11-29T05:39:39.692Z,4.10
2022-11-29T05:42:27.866Z,4.10
2022-11-29T05:45:05.376Z,4.10
2022-11-29T05:47:40.356Z,4.10
2022-11-29T05:50:23.175Z,4.10
2022-11-29T05:52:59.979Z,4.10
2022-11-29T05:55:51.274Z,4.10
2022-11-29T05:58:45.593Z,4.10
2022-11-29T06:01:36.377Z,4.10
2022-11-29T06:04:19.810Z,4.10
2022-11-29T06:07:16.090Z,4.10
2022-11-29T06:10:05.055Z,4.10
2022-11-29T06:12:34.544Z,4.00
2022-11-29T06:15:33.808Z,4.00
2022-11-29T06:18:03.610Z,4.10
2022-11-29T06:21:08.766Z,4.10
2022-11-29T06:23:52.800Z,4.10
2022-11-29T06:26:43.062Z,4.10
2022-11-29T06:29:24.652Z,4.10
2022-11-29T06:32:19.116Z,4.10
2022-11-29T06:35:11.171Z,4.10
2022-11-29T06:37:41.709Z,4.00
2022-11-29T06:40:14.298Z,4.00
2022-11-29T06:42:41.326Z,4.00
2022-11-29T06:45:11.885Z,4.00
2022-11-29T06:47:52.571Z,4.00
2022-11-29T06:50:31.731Z,4.00
2022-11-29T06:53:24.599Z,4.00
2022-11-29T06:56:29.203Z,4.10
2022-11-29T06:59:23.801Z,4.10
2022-11-29T07:02:10.727Z,4.10
2022-11-29T07:05:04.867Z,4.00
2022-11-29T07:07:34.040Z,4.00
2022-11-29T07:10:02.769Z,4.00
2022-11-29T07:12:29.855Z,4.00
2022-11-29T07:14:57.246Z,4.00
2022-11-29T07:17:42.788Z,4.00
2022-11-29T07:20:44.290Z,4.10
2022-11-29T07:23:24.304Z,4.10
2022-11-29T07:25:54.100Z,4.10
2022-11-29T07:28:37.645Z,4.10
2022-11-29T07:31:19.195Z,4.10
2022-11-29T07:34:03.996Z,4.10
2022-11-29T07:36:54.248Z,4.10
2022-11-29T07:39:39.014Z,4.20
2022-11-29T07:42:31.597Z,4.20
2022-11-29T07:45:29.130Z,4.20
2022-11-29T07:47:55.939Z,4.20
2022-11-29T07:50:22.735Z,4.30
2022-11-29T07:52:49.704Z,4.30
2022-11-29T07:55:24.959Z,4.40
2022-11-29T07:57:52.567Z,4.40
2022-11-29T08:00:20.630Z,4.40
2022-11-29T08:02:50.591Z,4.50
2022-11-29T08:05:17.844Z,4.50
2022-11-29T08:07:44.821Z,4.50
2022-11-29T08:10:14.879Z,4.50
2022-11-29T08:12:47.794Z,4.60
2022-11-29T08:15:15.127Z,4.60
2022-11-29T08:17:42.310Z,4.60
2022-11-29T08:20:10.294Z,4.70
2022-11-29T08:22:38.880Z,4.70
2022-11-29T08:25:07.410Z,4.70
2022-11-29T08:27:35.179Z,4.70
2022-11-29T08:30:01.972Z,4.80
2022-11-29T08:32:29.062Z,4.80
2022-11-29T08:34:55.939Z,4.90
2022-11-29T08:37:22.708Z,4.90
2022-11-29T08:39:49.426Z,5.00
2022-11-29T08:42:16.193Z,5.00
2022-11-29T08:44:43.214Z,5.00
2022-11-29T08:47:10.794Z,5.00
2022-11-29T08:49:37.526Z,5.10
2022-11-29T08:52:04.427Z,5.10
2022-11-29T08:54:34.397Z,5.10
2022-11-29T08:59:47.854Z,5.20
2022-11-29T09:02:14.562Z,5.20
2022-11-29T09:04:41.239Z,5.30
2022-11-29T09:07:07.878Z,5.30
2022-11-29T09:09:34.526Z,5.30
2022-11-29T09:12:01.283Z,5.40
2022-11-29T09:14:28.188Z,5.40
2022-11-29T09:16:55.048Z,5.40
2022-11-29T09:19:21.723Z,5.50
2022-11-29T09:21:48.358Z,5.60
2022-11-29T09:24:15.120Z,5.60
2022-11-29T09:26:41.826Z,5.70
2022-11-29T09:29:09.034Z,5.70
2022-11-29T09:31:35.925Z,5.80
2022-11-29T09:34:02.696Z,5.90
2022-11-29T09:36:30.526Z,5.90
2022-11-29T09:38:58.238Z,5.90
2022-11-29T09:41:55.980Z,6.00
2022-11-29T09:44:28.626Z,6.00
2022-11-29T09:47:22.418Z,5.90
2022-11-29T09:50:01.159Z,6.00
2022-11-29T09:52:45.868Z,6.00
2022-11-29T09:55:38.904Z,6.00
2022-11-29T09:58:13.418Z,6.10
2022-11-29T10:00:52.269Z,6.10
2022-11-29T10:03:22.516Z,6.10
2022-11-29T10:06:13.399Z,6.00
2022-11-29T10:08:51.791Z,6.10
2022-11-29T10:11:28.562Z,6.10
2022-11-29T10:14:02.730Z,6.10
2022-11-29T10:16:41.533Z,6.10
2022-11-29T10:19:38.501Z,6.10
2022-11-29T10:22:20.898Z,6.10
2022-11-29T10:24:51.697Z,6.10
2022-11-29T10:27:23.116Z,6.10
2022-11-29T10:29:53.811Z,6.00
2022-11-29T10:32:22.007Z,6.00
2022-11-29T10:34:50.157Z,6.00
2022-11-29T10:37:20.189Z,6.00
2022-11-29T10:40:00.709Z,6.00
2022-11-29T10:42:28.775Z,6.00
2022-11-29T10:44:55.905Z,6.00
2022-11-29T10:47:22.680Z,6.00
2022-11-29T10:49:49.378Z,6.00
2022-11-29T10:52:21.311Z,6.00
2022-11-29T10:54:49.812Z,6.00
2022-11-29T10:57:21.888Z,6.00
2022-11-29T11:00:10.126Z,5.90
2022-11-29T11:02:39.530Z,6.00
2022-11-29T11:05:14.083Z,6.00
2022-11-29T11:07:40.961Z,6.00
2022-11-29T11:10:28.549Z,6.00
2022-11-29T11:13:06.931Z,5.90
2022-11-29T11:15:34.213Z,5.90
2022-11-29T11:18:06.168Z,5.90
2022-11-29T11:20:37.834Z,5.90
2022-11-29T11:23:24.551Z,5.90
2022-11-29T11:26:01.759Z,5.90
2022-11-29T11:28:33.364Z,5.90
2022-11-29T11:31:06.266Z,5.90
2022-11-29T11:33:46.054Z,5.90
2022-11-29T11:36:14.536Z,5.90
2022-11-29T11:39:02.352Z,5.80
2022-11-29T11:41:38.354Z,5.80
2022-11-29T11:44:14.879Z,5.80
2022-11-29T11:46:52.312Z,5.90
2022-11-29T11:49:47.132Z,5.90
2022-11-29T11:52:49.870Z,5.90
2022-11-29T11:55:32.373Z,5.90
2022-11-29T11:58:09.713Z,5.90
2022-11-29T12:01:02.417Z,5.90
2022-11-29T12:03:48.247Z,5.90
2022-11-29T12:06:36.941Z,6.00
2022-11-29T12:09:09.553Z,6.00
2022-11-29T12:11:55.225Z,6.10
2022-11-29T12:14:47.156Z,6.00
2022-11-29T12:17:19.961Z,6.00
2022-11-29T12:19:58.177Z,6.00
2022-11-29T12:22:30.664Z,6.10
2022-11-29T12:25:04.823Z,6.10
2022-11-29T12:27:31.632Z,6.00
2022-11-29T12:29:58.361Z,6.00
2022-11-29T12:32:32.303Z,6.00
2022-11-29T12:35:02.022Z,5.90
2022-11-29T12:38:17.926Z,5.90
2022-11-29T12:41:27.515Z,5.90
2022-11-29T12:43:54.150Z,6.00
2022-11-29T12:46:29.008Z,6.00
2022-11-29T12:49:19.942Z,6.00
2022-11-29T12:52:03.927Z,6.00
2022-11-29T12:54:51.667Z,6.00
2022-11-29T12:57:42.520Z,6.00
2022-11-29T13:00:15.560Z,6.00
2022-11-29T13:03:02.525Z,6.00
2022-11-29T13:05:50.308Z,6.00
2022-11-29T13:08:50.552Z,6.00
2022-11-29T13:11:43.036Z,6.00
2022-11-29T13:14:42.088Z,6.00
2022-11-29T13:17:23.924Z,6.00
2022-11-29T13:19:55.589Z,6.00
2022-11-29T13:23:15.722Z,6.10
2022-11-29T13:25:46.695Z,6.00
2022-11-29T13:28:22.009Z,6.00
2022-11-29T13:30:49.615Z,6.00
2022-11-29T13:33:31.469Z,6.00
2022-11-29T13:36:14.426Z,6.00
2022-11-29T13:38:41.072Z,5.90
2022-11-29T13:41:29.093Z,5.90
2022-11-29T13:44:06.203Z,5.90
2022-11-29T13:46:36.079Z,5.90
2022-11-29T13:49:03.184Z,5.90
2022-11-29T13:51:35.856Z,5.90
2022-11-29T13:54:06.379Z,6.00
2022-11-29T13:56:41.680Z,5.90
2022-11-29T13:59:27.258Z,6.00
2022-11-29T14:01:54.624Z,5.90
2022-11-29T14:04:38.645Z,5.90
2022-11-29T14:07:17.633Z,5.90
2022-11-29T14:09:47.688Z,5.80
2022-11-29T14:12:39.602Z,5.70
2022-11-29T14:15:16.855Z,5.80
2022-11-29T14:17:58.813Z,5.80
2022-11-29T14:20:25.399Z,5.80
2022-11-29T14:23:33.106Z,5.80
2022-11-29T14:25:59.746Z,5.70
2022-11-29T14:28:38.213Z,5.70
2022-11-29T14:31:07.173Z,5.70
2022-11-29T14:34:06.252Z,5.70
2022-11-29T14:37:00.086Z,5.70
2022-11-29T14:39:49.221Z,5.70
2022-11-29T14:42:22.456Z,5.70
2022-11-29T14:44:55.387Z,5.70
2022-11-29T14:47:26.260Z,5.70
2022-11-29T14:49:55.356Z,5.70
2022-11-29T14:52:29.019Z,5.70
2022-11-29T14:54:58.956Z,5.70
2022-11-29T14:57:51.931Z,5.60
2022-11-29T15:00:22.439Z,5.60
2022-11-29T15:03:09.417Z,5.60
2022-11-29T15:05:50.002Z,5.60
2022-11-29T15:08:28.383Z,5.60
2022-11-29T15:11:10.166Z,5.60
2022-11-29T15:13:45.004Z,5.60
2022-11-29T15:16:24.499Z,5.60
2022-11-29T15:19:19.020Z,5.60
2022-11-29T15:22:19.246Z,5.60
2022-11-29T15:25:00.758Z,5.60
2022-11-29T15:27:28.333Z,5.60
2022-11-29T15:29:55.079Z,5.60
2022-11-29T15:32:31.558Z,5.60
2022-11-29T15:34:59.041Z,5.60
2022-11-29T15:37:31.849Z,5.60
2022-11-29T15:40:18.836Z,5.60
2022-11-29T15:43:12.423Z,5.60
2022-11-29T15:45:40.023Z,5.60
2022-11-29T15:48:17.133Z,5.50
2022-11-29T15:50:54.758Z,5.60
2022-11-29T15:53:36.939Z,5.50
2022-11-29T15:56:11.008Z,5.60
2022-11-29T15:58:38.229Z,5.60
2022-11-29T16:01:06.049Z,5.60
2022-11-29T16:03:35.502Z,5.60
2022-11-29T16:06:05.653Z,5.60
2022-11-29T16:08:37.217Z,5.60
2022-11-29T16:11:05.703Z,5.60
2022-11-29T16:13:40.314Z,5.60
2022-11-29T16:16:09.954Z,5.60
2022-11-29T16:18:37.998Z,5.60
2022-11-29T16:21:06.421Z,5.60
2022-11-29T16:23:35.465Z,5.60
2022-11-29T16:26:17.677Z,5.60
2022-11-29T16:28:46.935Z,5.60
2022-11-29T16:31:22.722Z,5.60
2022-11-29T16:33:51.476Z,5.50
2022-11-29T16:36:25.375Z,5.50
2022-11-29T16:39:07.404Z,5.50
2022-11-29T16:41:35.896Z,5.50
2022-11-29T16:44:04.368Z,5.50
2022-11-29T16:46:35.977Z,5.50
2022-11-29T16:49:33.374Z,5.40
2022-11-29T16:52:00.811Z,5.50
2022-11-29T16:54:32.363Z,5.50
2022-11-29T16:56:59.385Z,5.50
2022-11-29T16:59:28.344Z,5.40
2022-11-29T17:01:56.558Z,5.40
2022-11-29T17:04:24.372Z,5.40
2022-11-29T17:06:56.947Z,5.40
2022-11-29T17:09:26.385Z,5.40
2022-11-29T17:11:54.184Z,5.40
2022-11-29T17:14:21.088Z,5.50
2022-11-29T17:16:47.860Z,5.40
2022-11-29T17:19:15.287Z,5.40
2022-11-29T17:21:42.246Z,5.40
2022-11-29T17:24:12.963Z,5.40
2022-11-29T17:26:40.984Z,5.40
2022-11-29T17:29:10.194Z,5.40
2022-11-29T17:31:36.964Z,5.40
2022-11-29T17:34:04.074Z,5.40
2022-11-29T17:36:30.881Z,5.40
2022-11-29T17:38:59.486Z,5.40
2022-11-29T17:41:27.187Z,5.40
2022-11-29T17:43:55.566Z,5.40
2022-11-29T17:46:28.710Z,5.40
2022-11-29T17:48:58.350Z,5.40
2022-11-29T17:54:12.218Z,5.40
2022-11-29T17:56:38.988Z,5.40
2022-11-29T17:59:05.956Z,5.40
2022-11-29T18:01:34.388Z,5.40
2022-11-29T18:04:02.373Z,5.40
2022-11-29T18:06:37.872Z,5.30
2022-11-29T18:09:06.229Z,5.30
2022-11-29T18:11:44.860Z,5.30
2022-11-29T18:14:15.321Z,5.40
2022-11-29T18:16:42.148Z,5.40
2022-11-29T18:19:12.239Z,5.40
2022-11-29T18:21:39.034Z,5.30
2022-11-29T18:24:06.928Z,5.30
2022-11-29T18:26:35.920Z,5.40
2022-11-29T18:29:03.122Z,5.40
2022-11-29T18:31:32.195Z,5.40
2022-11-29T18:34:01.138Z,5.40
2022-11-29T18:36:33.512Z,5.40
2022-11-29T18:39:02.440Z,5.40
2022-11-29T18:41:30.448Z,5.40
2022-11-29T18:44:08.976Z,5.40
2022-11-29T18:46:37.695Z,5.40
2022-11-29T18:49:07.209Z,5.40
2022-11-29T18:51:35.607Z,5.40
2022-11-29T18:54:02.590Z,5.40
2022-11-29T18:56:31.192Z,5.40
2022-11-29T18:59:03.372Z,5.40
2022-11-29T19:01:32.429Z,5.40
2022-11-29T19:04:01.185Z,5.40
2022-11-29T19:06:38.891Z,5.50
2022-11-29T19:09:11.597Z,5.40
2022-11-29T19:11:39.209Z,5.40
2022-11-29T19:14:07.851Z,5.40
2022-11-29T19:16:34.739Z,5.40
2022-11-29T19:19:02.090Z,5.40
2022-11-29T19:21:31.438Z,5.40
2022-11-29T19:24:01.299Z,5.40
2022-11-29T19:26:30.174Z,5.40
2022-11-29T19:28:59.082Z,5.40
2022-11-29T19:31:26.290Z,5.40
2022-11-29T19:33:54.553Z,5.40
2022-11-29T19:36:31.359Z,5.40
2022-11-29T19:39:00.783Z,5.40
2022-11-29T19:41:33.060Z,5.40
2022-11-29T19:44:05.381Z,5.40
2022-11-29T19:46:40.572Z,5.40
2022-11-29T19:49:08.832Z,5.40
2022-11-29T19:51:36.339Z,5.40
2022-11-29T19:54:05.937Z,5.40
2022-11-29T19:56:33.169Z,5.40
2022-11-29T19:59:00.248Z,5.40
2022-11-29T20:01:36.071Z,5.50
2022-11-29T20:04:06.895Z,5.50
2022-11-29T20:06:33.813Z,5.50
2022-11-29T20:09:00.735Z,5.40
2022-11-29T20:11:27.470Z,5.40
2022-11-29T20:14:00.356Z,5.40
2022-11-29T20:16:28.413Z,5.40
2022-11-29T20:18:55.507Z,5.40
2022-11-29T20:21:31.292Z,5.40
2022-11-29T20:24:03.024Z,5.40
2022-11-29T20:26:31.702Z,5.40
2022-11-29T20:28:59.013Z,5.40
2022-11-29T20:31:25.787Z,5.40
2022-11-29T20:33:53.897Z,5.40
2022-11-29T20:36:51.425Z,5.40
2022-11-29T20:39:36.428Z,5.30
2022-11-29T20:42:33.460Z,5.30
2022-11-29T20:45:02.567Z,5.30
2022-11-29T20:48:02.498Z,5.20
2022-11-29T20:50:31.516Z,5.20
2022-11-29T20:53:01.106Z,5.20
2022-11-29T20:55:27.778Z,5.20
2022-11-29T20:57:54.488Z,5.20
2022-11-29T21:00:21.573Z,5.20
2022-11-29T21:02:48.268Z,5.20
2022-11-29T21:05:15.114Z,5.20
2022-11-29T21:07:42.327Z,5.20
2022-11-29T21:10:09.389Z,5.20
2022-11-29T21:12:36.305Z,5.20
2022-11-29T21:15:03.463Z,5.20
2022-11-29T21:17:33.719Z,5.20
2022-11-29T21:20:01.196Z,5.20
2022-11-29T21:22:45.848Z,5.20
2022-11-29T21:25:38.133Z,5.20
2022-11-29T21:28:11.476Z,5.20
2022-11-29T21:30:39.184Z,5.20
2022-11-29T21:33:06.349Z,5.20
2022-11-29T21:35:33.032Z,5.20
2022-11-29T21:38:01.586Z,5.20
2022-11-29T21:40:28.518Z,5.20
2022-11-29T21:42:55.324Z,5.10
2022-11-29T21:45:21.967Z,5.10
2022-11-29T21:47:48.634Z,5.20
2022-11-29T21:50:15.441Z,5.20
2022-11-29T21:52:42.148Z,5.20
2022-11-29T21:55:09.167Z,5.10
2022-11-29T21:57:35.903Z,5.10
2022-11-29T22:00:03.863Z,5.10
2022-11-29T22:02:30.658Z,5.10
2022-11-29T22:04:57.542Z,5.10
2022-11-29T22:07:24.213Z,5.10
2022-11-29T22:09:50.957Z,5.10
2022-11-29T22:12:33.889Z,5.10
2022-11-29T22:15:01.466Z,5.10
2022-11-29T22:17:28.219Z,5.10
2022-11-29T22:19:54.882Z,5.10
2022-11-29T22:22:27.147Z,5.10
2022-11-29T22:25:00.858Z,5.10
2022-11-29T22:27:27.466Z,5.10
2022-11-29T22:29:54.094Z,5.10
2022-11-29T22:32:20.763Z,5.00
2022-11-29T22:34:47.578Z,5.00
2022-11-29T22:37:14.584Z,5.00
2022-11-29T22:39:41.259Z,5.10
2022-11-29T22:42:07.905Z,5.00
2022-11-29T22:44:34.578Z,5.00
2022-11-29T22:47:01.382Z,5.00
2022-11-29T22:49:28.089Z,5.10
2022-11-29T22:51:55.901Z,5.10
2022-11-29T22:54:22.580Z,5.10
2022-11-29T22:56:52.011Z,5.10
2022-11-29T22:59:18.729Z,5.10
2022-11-29T23:01:45.433Z,5.10
2022-11-29T23:04:12.775Z,5.10
2022-11-29T23:06:43.185Z,5.10
2022-11-29T23:09:17.163Z,5.00
2022-11-29T23:11:45.408Z,5.00
2022-11-29T23:14:12.993Z,5.00
2022-11-29T23:16:43.174Z,5.00
2022-11-29T23:19:10.270Z,5.10
2022-11-29T23:21:42.011Z,5.10
2022-11-29T23:24:08.934Z,5.10
2022-11-29T23:26:38.470Z,5.10
2022-11-29T23:29:11.680Z,5.10
2022-11-29T23:31:39.582Z,5.10
2022-11-29T23:34:06.483Z,5.10
2022-11-29T23:36:33.580Z,5.10
2022-11-29T23:39:00.313Z,5.10
2022-11-29T23:41:27.162Z,5.10
2022-11-29T23:43:53.973Z,5.10
2022-11-29T23:46:23.282Z,5.00
2022-11-29T23:48:50.540Z,5.00
2022-11-29T23:51:18.758Z,5.00
2022-11-29T23:53:46.044Z,5.00
2022-11-29T23:56:17.224Z,5.00
2022-11-29T23:58:44.832Z,5.00
